| time (UTC) | temp F | wind direction | speed MPH | gust MPH | rain 1hr in | rain 24hr in | rain mn in | humidity % | barometer mb |
| 20260509124026 | 57 | 181 | 2.0 | 5.0 | 0.00 | 0.00 | 0.00 | 90 | 984.5 |
| 20260509123111 | 56 | 140 | 3.0 | 6.0 | 0.00 | 0.00 | 0.00 | 92 | 984.3 |
| 20260509122042 | 54 | 354 | 2.0 | 3.0 | 0.00 | 0.00 | 0.00 | 96 | 984.5 |
| 20260509121301 | 0 | 0.0 | 0.0 | 0.00 | 0.00 | 0.00 | 984.5 | ||
| 20260509120021 | 53 | 1.0 | 3.0 | 0.00 | 0.00 | 0.00 | 99 | 984.5 | |
| 20260509115448 | 0 | 89 | 3.0 | 3.0 | 0.00 | 0.00 | 0.00 | 986.8 | |
| 20260509114234 | 52 | 161 | 3.0 | 4.0 | 0.00 | 0.00 | 0.00 | 99 | 984.3 |
| 20260509113237 | 0 | 180 | 5.0 | 5.0 | 0.00 | 0.00 | 0.00 | 984.5 | |
| 20260509074044 | 53 | 136 | 2.0 | 4.0 | 0.00 | 0.00 | 0.00 | 94 | 984.7 |
| 20260509073033 | 53 | 132 | 2.0 | 4.0 | 0.00 | 0.00 | 0.00 | 94 | 984.9 |
| 20260509072103 | 53 | 0.0 | 0.0 | 0.00 | 0.00 | 0.00 | 94 | 985.2 | |
| 20260509071111 | 53 | 136 | 1.0 | 4.0 | 0.00 | 0.00 | 0.00 | 93 | 985.2 |
| 20260509070021 | 53 | 182 | 1.0 | 4.0 | 0.00 | 0.00 | 0.00 | 93 | 985.3 |
| 20260509065029 | 53 | 123 | 1.0 | 4.0 | 0.00 | 0.00 | 0.00 | 93 | 985.5 |
| 20260509064036 | 54 | 134 | 1.0 | 4.0 | 0.00 | 0.00 | 0.00 | 93 | 985.6 |
| 20260509063141 | 54 | 135 | 1.0 | 2.0 | 0.00 | 0.00 | 0.00 | 93 | 985.5 |
| 20260509062016 | 54 | 229 | 3.0 | 4.0 | 0.00 | 0.00 | 0.00 | 92 | 985.7 |
| 20260509061023 | 54 | 152 | 2.0 | 3.0 | 0.00 | 0.00 | 0.00 | 92 | 985.8 |
| 20260509060014 | 54 | 81 | 2.0 | 3.0 | 0.00 | 0.00 | 0.00 | 92 | 986.0 |
| 20260509055003 | 55 | 91 | 2.0 | 3.0 | 0.00 | 0.00 | 0.00 | 92 | 986.0 |
| 20260509054125 | 55 | 94 | 3.0 | 5.0 | 0.00 | 0.00 | 0.00 | 91 | 985.9 |
| 20260509052959 | 55 | 133 | 2.0 | 3.0 | 0.00 | 0.00 | 0.00 | 91 | 986.0 |
| 20260509052009 | 55 | 145 | 2.0 | 4.0 | 0.00 | 0.00 | 0.00 | 90 | 985.8 |
| 20260509050957 | 56 | 111 | 2.0 | 4.0 | 0.00 | 0.00 | 0.00 | 89 | 985.9 |
| 20260509050006 | 56 | 177 | 3.0 | 4.0 | 0.00 | 0.00 | 0.00 | 88 | 985.8 |
| 20260509044954 | 56 | 2.0 | 2.0 | 0.00 | 0.00 | 0.00 | 88 | 985.9 | |
| 20260509044021 | 57 | 122 | 3.0 | 5.0 | 0.00 | 0.00 | 0.00 | 86 | 986.1 |
| 20260509043030 | 56 | 105 | 2.0 | 6.0 | 0.00 | 0.00 | 0.00 | 85 | 985.9 |
| 20260509042020 | 57 | 117 | 2.0 | 4.0 | 0.00 | 0.00 | 0.00 | 84 | 986.0 |
| 20260509041009 | 57 | 148 | 2.0 | 3.0 | 0.00 | 0.00 | 0.00 | 83 | 986.2 |
| 20260509035958 | 57 | 168 | 3.0 | 5.0 | 0.00 | 0.00 | 0.00 | 81 | 986.2 |
| 20260509035047 | 57 | 168 | 3.0 | 6.0 | 0.00 | 0.00 | 0.00 | 80 | 986.2 |
| 20260509033955 | 58 | 121 | 3.0 | 4.0 | 0.00 | 0.00 | 0.00 | 79 | 986.4 |
| 20260509033003 | 58 | 158 | 3.0 | 5.0 | 0.00 | 0.00 | 0.00 | 79 | 986.3 |
| 20260509032011 | 58 | 184 | 1.0 | 3.0 | 0.00 | 0.00 | 0.00 | 79 | 986.3 |
| 20260509031001 | 58 | 125 | 2.0 | 3.0 | 0.00 | 0.00 | 0.00 | 80 | 986.3 |
| 20260509030010 | 58 | 154 | 3.0 | 6.0 | 0.00 | 0.00 | 0.00 | 80 | 986.3 |
| 20260509024958 | 57 | 151 | 2.0 | 4.0 | 0.00 | 0.00 | 0.00 | 80 | 986.4 |
| 20260509024006 | 55 | 148 | 2.0 | 3.0 | 0.00 | 0.00 | 0.00 | 79 | 986.5 |
| 20260509022955 | 54 | 156 | 1.0 | 2.0 | 0.00 | 0.00 | 0.00 | 75 | 986.5 |
| 20260509022004 | 54 | 0.0 | 0.0 | 0.00 | 0.00 | 0.00 | 74 | 986.6 | |
| 20260509021011 | 55 | 0.0 | 0.0 | 0.00 | 0.00 | 0.00 | 73 | 986.4 | |
| 20260509020001 | 55 | 0.0 | 0.0 | 0.00 | 0.00 | 0.00 | 71 | 986.4 | |
| 20260509015009 | 56 | 0.0 | 0.0 | 0.00 | 0.00 | 0.00 | 70 | 986.3 | |
| 20260509014018 | 56 | 0.0 | 0.0 | 0.00 | 0.00 | 0.00 | 69 | 986.2 | |
| 20260509013006 | 57 | 0.0 | 0.0 | 0.00 | 0.00 | 0.00 | 68 | 986.2 | |
| 20260509011956 | 58 | 129 | 1.0 | 3.0 | 0.00 | 0.00 | 0.00 | 67 | 986.2 |
| 20260509011044 | 58 | 131 | 2.0 | 4.0 | 0.00 | 0.00 | 0.00 | 67 | 986.2 |
| 20260509010012 | 58 | 148 | 1.0 | 2.0 | 0.00 | 0.00 | 0.00 | 67 | 986.2 |
| 20260509005003 | 59 | 99 | 1.0 | 2.0 | 0.00 | 0.00 | 0.00 | 66 | 986.3 |
| 20260509004030 | 60 | 113 | 1.0 | 3.0 | 0.00 | 0.00 | 0.00 | 66 | 986.3 |
| 20260509002959 | 60 | 164 | 2.0 | 4.0 | 0.00 | 0.00 | 0.00 | 66 | 986.3 |
| 20260509002028 | 61 | 129 | 2.0 | 3.0 | 0.00 | 0.00 | 0.00 | 65 | 986.3 |
| 20260509001015 | 61 | 116 | 2.0 | 3.0 | 0.00 | 0.00 | 0.00 | 65 | 986.4 |
| 20260509000005 | 61 | 141 | 2.0 | 3.0 | 0.00 | 0.00 | 0.00 | 65 | 986.4 |
| 20260508235012 | 62 | 119 | 2.0 | 4.0 | 0.00 | 0.00 | 0.00 | 64 | 986.5 |
| 20260508234003 | 62 | 136 | 3.0 | 3.0 | 0.00 | 0.00 | 0.00 | 64 | 986.4 |
| 20260508233010 | 63 | 86 | 2.0 | 5.0 | 0.00 | 0.00 | 0.00 | 63 | 986.4 |
| 20260508231959 | 63 | 108 | 3.0 | 6.0 | 0.00 | 0.00 | 0.00 | 64 | 986.4 |
| 20260508231008 | 63 | 134 | 2.0 | 4.0 | 0.00 | 0.00 | 0.00 | 64 | 986.5 |
| 20260508230015 | 63 | 154 | 2.0 | 4.0 | 0.00 | 0.00 | 0.00 | 65 | 986.6 |
| 20260508225004 | 63 | 61 | 3.0 | 4.0 | 0.00 | 0.00 | 0.00 | 64 | 986.7 |
| 20260508224012 | 63 | 86 | 2.0 | 6.0 | 0.00 | 0.00 | 0.00 | 65 | 986.7 |
| 20260508223023 | 64 | 57 | 3.0 | 6.0 | 0.00 | 0.00 | 0.00 | 65 | 986.6 |
| 20260508222010 | 64 | 49 | 4.0 | 6.0 | 0.00 | 0.02 | 0.00 | 65 | 986.6 |
| 20260508221038 | 64 | 33 | 2.0 | 4.0 | 0.00 | 0.05 | 0.00 | 66 | 986.7 |
| 20260508220008 | 65 | 66 | 3.0 | 5.0 | 0.00 | 0.10 | 0.00 | 64 | 986.8 |
| 20260508215036 | 66 | 47 | 5.0 | 7.0 | 0.00 | 0.10 | 0.00 | 62 | 986.8 |
| 20260508214005 | 67 | 35 | 4.0 | 7.0 | 0.00 | 0.10 | 0.00 | 60 | 986.6 |
| 20260508213033 | 67 | 102 | 3.0 | 6.0 | 0.00 | 0.10 | 0.00 | 60 | 986.6 |
| 20260508212003 | 68 | 145 | 3.0 | 5.0 | 0.00 | 0.10 | 0.00 | 60 | 986.7 |
| 20260508211010 | 68 | 117 | 3.0 | 4.0 | 0.00 | 0.10 | 0.00 | 60 | 986.8 |
| 20260508210019 | 69 | 107 | 4.0 | 7.0 | 0.00 | 0.10 | 0.00 | 59 | 986.8 |
| 20260508205007 | 69 | 40 | 4.0 | 7.0 | 0.00 | 0.10 | 0.00 | 58 | 986.8 |
| 20260508204037 | 69 | 79 | 4.0 | 7.0 | 0.00 | 0.10 | 0.00 | 59 | 987.1 |
| 20260508203004 | 69 | 144 | 4.0 | 7.0 | 0.00 | 0.10 | 0.00 | 59 | 987.2 |
| 20260508202013 | 71 | 163 | 3.0 | 5.0 | 0.00 | 0.10 | 0.00 | 55 | 987.5 |
| 20260508201021 | 69 | 56 | 3.0 | 6.0 | 0.00 | 0.10 | 0.00 | 57 | 987.5 |
| 20260508200010 | 69 | 116 | 3.0 | 5.0 | 0.00 | 0.10 | 0.00 | 56 | 987.7 |
| 20260508195057 | 68 | 173 | 4.0 | 6.0 | 0.00 | 0.10 | 0.00 | 57 | 987.8 |
| 20260508194008 | 67 | 88 | 4.0 | 5.0 | 0.00 | 0.10 | 0.00 | 59 | 988.0 |
| 20260508193015 | 67 | 49 | 3.0 | 6.0 | 0.00 | 0.10 | 0.00 | 60 | 988.0 |
| 20260508192004 | 68 | 75 | 4.0 | 5.0 | 0.00 | 0.10 | 0.00 | 57 | 988.2 |
| 20260508191012 | 69 | 38 | 3.0 | 7.0 | 0.00 | 0.10 | 0.00 | 57 | 988.3 |
| 20260508190021 | 69 | 38 | 5.0 | 7.0 | 0.00 | 0.10 | 0.00 | 56 | 988.4 |
| 20260508185010 | 69 | 87 | 4.0 | 5.0 | 0.00 | 0.10 | 0.00 | 56 | 988.5 |
| 20260508184038 | 68 | 64 | 3.0 | 6.0 | 0.00 | 0.10 | 0.00 | 56 | 988.6 |
| 20260508183007 | 68 | 135 | 3.0 | 5.0 | 0.00 | 0.10 | 0.00 | 56 | 988.7 |
| 20260508182035 | 73 | 133 | 4.0 | 5.0 | 0.00 | 0.10 | 0.00 | 47 | 988.7 |
| 20260508181023 | 69 | 120 | 1.0 | 3.0 | 0.00 | 0.10 | 0.00 | 52 | 988.9 |
| 20260508180013 | 69 | 143 | 3.0 | 6.0 | 0.00 | 0.10 | 0.00 | 53 | 989.0 |
| 20260508175021 | 68 | 123 | 3.0 | 5.0 | 0.00 | 0.10 | 0.00 | 54 | 989.2 |
| 20260508174010 | 68 | 151 | 4.0 | 6.0 | 0.00 | 0.10 | 0.00 | 55 | 989.4 |
| 20260508173019 | 69 | 151 | 3.0 | 5.0 | 0.00 | 0.10 | 0.00 | 56 | 989.6 |
| 20260508172008 | 70 | 154 | 2.0 | 3.0 | 0.00 | 0.10 | 0.00 | 55 | 989.7 |
| 20260508171036 | 68 | 116 | 2.0 | 4.0 | 0.00 | 0.10 | 0.00 | 57 | 989.9 |
| 20260508170026 | 67 | 176 | 3.0 | 5.0 | 0.00 | 0.10 | 0.00 | 58 | 990.0 |
| 20260508165013 | 67 | 118 | 3.0 | 6.0 | 0.00 | 0.10 | 0.00 | 58 | 990.1 |
| 20260508164023 | 66 | 168 | 3.0 | 5.0 | 0.00 | 0.10 | 0.00 | 59 | 990.3 |
| 20260508163011 | 67 | 136 | 2.0 | 4.0 | 0.00 | 0.10 | 0.00 | 57 | 990.7 |
| 20260508162040 | 66 | 147 | 3.0 | 5.0 | 0.00 | 0.10 | 0.00 | 56 | 990.5 |
| 20260508161008 | 65 | 167 | 2.0 | 4.0 | 0.00 | 0.10 | 0.00 | 58 | 990.6 |
| 20260508160016 | 67 | 94 | 2.0 | 4.0 | 0.00 | 0.10 | 0.00 | 56 | 990.7 |
| 20260508155025 | 66 | 83 | 3.0 | 4.0 | 0.00 | 0.10 | 0.00 | 57 | 990.8 |
| 20260508154036 | 65 | 172 | 3.0 | 4.0 | 0.00 | 0.10 | 0.00 | 58 | 990.9 |
| 20260508153043 | 63 | 118 | 1.0 | 3.0 | 0.00 | 0.10 | 0.00 | 61 | 991.1 |
| 20260508152012 | 63 | 147 | 2.0 | 4.0 | 0.00 | 0.10 | 0.00 | 61 | 991.1 |
| 20260508151040 | 64 | 94 | 3.0 | 5.0 | 0.00 | 0.10 | 0.00 | 58 | 991.1 |
| 20260508150026 | 62 | 113 | 2.0 | 3.0 | 0.00 | 0.10 | 0.00 | 59 | 991.1 |
| 20260508145018 | 61 | 173 | 3.0 | 5.0 | 0.00 | 0.10 | 0.00 | 62 | 991.1 |
| 20260508144023 | 59 | 105 | 2.0 | 4.0 | 0.00 | 0.10 | 0.00 | 67 | 991.3 |
| 20260508143015 | 59 | 131 | 3.0 | 4.0 | 0.00 | 0.10 | 0.00 | 66 | 991.3 |
| 20260508142021 | 58 | 149 | 3.0 | 5.0 | 0.00 | 0.10 | 0.00 | 71 | 991.3 |
| 20260508141013 | 56 | 157 | 3.0 | 5.0 | 0.00 | 0.10 | 0.00 | 74 | 991.3 |
| 20260508140018 | 55 | 151 | 3.0 | 4.0 | 0.00 | 0.10 | 0.00 | 79 | 991.4 |
| 20260508135047 | 54 | 168 | 3.0 | 4.0 | 0.00 | 0.10 | 0.00 | 82 | 991.3 |
| 20260508134015 | 54 | 167 | 2.0 | 3.0 | 0.00 | 0.10 | 0.00 | 84 | 991.2 |
| 20260508133024 | 53 | 96 | 1.0 | 3.0 | 0.00 | 0.10 | 0.00 | 88 | 991.2 |
| 20260508132013 | 53 | 81 | 1.0 | 3.0 | 0.00 | 0.10 | 0.00 | 90 | 991.3 |
| 20260508131021 | 51 | 63 | 2.0 | 3.0 | 0.00 | 0.10 | 0.00 | 95 | 991.1 |
| 20260508130029 | 50 | 62 | 1.0 | 4.0 | 0.00 | 0.10 | 0.00 | 96 | 991.2 |
| 20260508125019 | 50 | 0.0 | 0.0 | 0.00 | 0.10 | 0.00 | 97 | 991.5 |